createdAt,value
2019-03-20T00:01:43.967Z,-0.61
2019-03-20T00:03:21.119Z,-0.65
2019-03-20T00:04:56.501Z,-0.65
2019-03-20T00:06:35.642Z,-0.62
2019-03-20T00:08:12.816Z,-0.68
2019-03-20T00:09:47.966Z,-0.64
2019-03-20T00:11:25.725Z,-0.58
2019-03-20T00:13:01.538Z,-0.62
2019-03-20T00:14:39.335Z,-0.61
2019-03-20T00:16:14.520Z,-0.57
2019-03-20T00:17:49.880Z,-0.60
2019-03-20T00:19:25.927Z,-0.62
2019-03-20T00:21:01.011Z,-0.61
2019-03-20T00:22:36.847Z,-0.61
2019-03-20T00:24:13.573Z,-0.58
2019-03-20T00:25:48.781Z,-0.58
2019-03-20T00:27:23.989Z,-0.65
2019-03-20T00:28:59.161Z,-0.65
2019-03-20T00:30:38.971Z,-0.70
2019-03-20T00:32:14.455Z,-0.70
2019-03-20T00:33:49.656Z,-0.72
2019-03-20T00:35:25.389Z,-0.66
2019-03-20T00:37:04.875Z,-0.69
2019-03-20T00:38:42.544Z,-0.69
2019-03-20T00:40:17.846Z,-0.62
2019-03-20T00:41:54.290Z,-0.61
2019-03-20T00:43:29.468Z,-0.66
2019-03-20T00:45:13.070Z,-0.76
2019-03-20T00:46:48.113Z,-0.78
2019-03-20T00:48:23.760Z,-0.86
2019-03-20T00:49:59.443Z,-0.81
2019-03-20T00:51:37.027Z,-0.75
2019-03-20T00:53:12.845Z,-0.75
2019-03-20T00:54:48.066Z,-0.84
2019-03-20T00:56:23.928Z,-0.83
2019-03-20T00:57:59.459Z,-0.85
2019-03-20T00:59:37.192Z,-0.83
2019-03-20T01:01:13.437Z,-0.72
2019-03-20T01:02:49.261Z,-0.74
2019-03-20T01:04:24.441Z,-0.74
2019-03-20T01:06:01.000Z,-0.73
2019-03-20T01:07:39.436Z,-0.69
2019-03-20T01:09:15.042Z,-0.66
2019-03-20T01:10:51.144Z,-0.72
2019-03-20T01:12:26.203Z,-0.87
2019-03-20T01:14:02.004Z,-0.81
2019-03-20T01:15:37.764Z,-0.83
2019-03-20T01:17:13.214Z,-0.91
2019-03-20T01:18:49.681Z,-0.93
2019-03-20T01:20:24.795Z,-0.90
2019-03-20T01:22:01.051Z,-0.99
2019-03-20T01:23:36.216Z,-0.97
2019-03-20T01:25:15.262Z,-1.04
2019-03-20T01:26:50.491Z,-1.21
2019-03-20T01:28:27.839Z,-1.29
2019-03-20T01:30:04.709Z,-1.31
2019-03-20T01:31:40.058Z,-1.14
2019-03-20T01:33:17.453Z,-1.07
2019-03-20T01:34:56.972Z,-1.10
2019-03-20T01:36:34.574Z,-1.09
2019-03-20T01:38:10.273Z,-1.16
2019-03-20T01:39:47.927Z,-1.23
2019-03-20T01:41:23.010Z,-1.30
2019-03-20T01:42:58.926Z,-1.44
2019-03-20T01:44:40.212Z,-1.38
2019-03-20T01:46:15.586Z,-1.19
2019-03-20T01:47:53.712Z,-1.25
2019-03-20T01:49:29.214Z,-1.07
2019-03-20T01:51:20.925Z,-0.99
2019-03-20T01:52:56.365Z,-1.00
2019-03-20T01:54:35.092Z,-1.03
2019-03-20T01:56:13.212Z,-1.11
2019-03-20T01:57:51.905Z,-1.13
2019-03-20T01:59:27.044Z,-1.19
2019-03-20T02:01:02.750Z,-1.26
2019-03-20T02:02:40.596Z,-1.33
2019-03-20T02:04:15.904Z,-1.23
2019-03-20T02:05:51.124Z,-1.16
2019-03-20T02:07:29.372Z,-1.06
2019-03-20T02:09:05.601Z,-1.12
2019-03-20T02:10:41.455Z,-1.06
2019-03-20T02:12:17.760Z,-1.07
2019-03-20T02:13:59.108Z,-0.98
2019-03-20T02:15:39.294Z,-0.84
2019-03-20T02:17:14.236Z,-1.00
2019-03-20T02:18:49.361Z,-1.09
2019-03-20T02:20:24.434Z,-1.07
2019-03-20T02:21:59.992Z,-0.91
2019-03-20T02:23:35.844Z,-0.82
2019-03-20T02:25:14.248Z,-0.78
2019-03-20T02:26:52.238Z,-0.57
2019-03-20T02:28:27.749Z,-0.50
2019-03-20T02:30:05.271Z,-0.49
2019-03-20T02:31:41.068Z,-0.54
2019-03-20T02:33:16.445Z,-0.47
2019-03-20T02:34:52.263Z,-0.40
2019-03-20T02:36:27.466Z,-0.41
2019-03-20T02:38:03.119Z,-0.40
2019-03-20T02:39:38.589Z,-0.44
2019-03-20T02:41:14.245Z,-0.38
2019-03-20T02:42:49.885Z,-0.41
2019-03-20T02:44:25.163Z,-0.57
2019-03-20T02:46:00.805Z,-0.68
2019-03-20T02:47:35.984Z,-0.53
2019-03-20T02:49:11.063Z,-0.47
2019-03-20T02:50:46.220Z,-0.51
2019-03-20T02:52:21.365Z,-0.72
2019-03-20T02:53:56.841Z,-0.81
2019-03-20T02:55:31.971Z,-0.81
2019-03-20T02:57:07.046Z,-0.78
2019-03-20T02:58:42.229Z,-0.68
2019-03-20T03:00:17.793Z,-0.60
2019-03-20T03:01:56.152Z,-0.74
2019-03-20T03:03:33.236Z,-0.87
2019-03-20T03:05:11.123Z,-0.91
2019-03-20T03:06:51.399Z,-0.87
2019-03-20T03:08:29.280Z,-0.78
2019-03-20T03:10:07.432Z,-0.67
2019-03-20T03:11:42.831Z,-0.67
2019-03-20T03:13:22.063Z,-0.61
2019-03-20T03:15:02.819Z,-0.86
2019-03-20T03:16:38.466Z,-0.84
2019-03-20T03:18:16.457Z,-0.76
2019-03-20T03:19:51.614Z,-0.68
2019-03-20T03:21:27.402Z,-0.66
2019-03-20T03:23:08.048Z,-0.59
2019-03-20T03:24:48.002Z,-0.51
2019-03-20T03:26:25.589Z,-0.57
2019-03-20T03:28:00.970Z,-0.48
2019-03-20T03:29:38.659Z,-0.48
2019-03-20T03:31:14.167Z,-0.50
2019-03-20T03:32:49.855Z,-0.47
2019-03-20T03:34:28.383Z,-0.46
2019-03-20T03:36:20.284Z,-0.43
2019-03-20T03:37:46.489Z,-0.43
2019-03-20T03:39:24.567Z,-0.41
2019-03-20T03:41:01.355Z,-0.42
2019-03-20T03:42:39.224Z,-0.44
2019-03-20T03:44:17.258Z,-0.52
2019-03-20T03:45:54.819Z,-0.54
2019-03-20T03:47:30.570Z,-0.54
2019-03-20T03:49:05.948Z,-0.62
2019-03-20T03:50:41.062Z,-0.60
2019-03-20T03:52:18.399Z,-0.60
2019-03-20T03:53:56.342Z,-0.59
2019-03-20T03:55:34.218Z,-0.58
2019-03-20T03:57:11.916Z,-0.59
2019-03-20T03:58:49.285Z,-0.51
2019-03-20T04:00:27.676Z,-0.43
2019-03-20T04:02:03.236Z,-0.40
2019-03-20T04:03:43.638Z,-0.44
2019-03-20T04:05:20.731Z,-0.42
2019-03-20T04:06:55.830Z,-0.45
2019-03-20T04:08:33.235Z,-0.43
2019-03-20T04:10:14.250Z,-0.46
2019-03-20T04:11:49.312Z,-0.40
2019-03-20T04:13:24.429Z,-0.40
2019-03-20T04:15:02.491Z,-0.34
2019-03-20T04:16:39.126Z,-0.36
2019-03-20T04:18:14.679Z,-0.31
2019-03-20T04:19:49.763Z,-0.33
2019-03-20T04:21:25.979Z,-0.37
2019-03-20T04:23:01.271Z,-0.40
2019-03-20T04:24:36.428Z,-0.39
2019-03-20T04:26:11.821Z,-0.38
2019-03-20T04:27:46.988Z,-0.39
2019-03-20T04:29:22.153Z,-0.41
2019-03-20T04:30:57.727Z,-0.41
2019-03-20T04:32:32.845Z,-0.44
2019-03-20T04:34:08.268Z,-0.55
2019-03-20T04:35:43.898Z,-0.50
2019-03-20T04:37:19.037Z,-0.46
2019-03-20T04:38:54.098Z,-0.46
2019-03-20T04:40:30.014Z,-0.51
2019-03-20T04:42:06.092Z,-0.52
2019-03-20T04:43:41.601Z,-0.52
2019-03-20T04:45:17.031Z,-0.48
2019-03-20T04:46:52.313Z,-0.48
2019-03-20T04:48:27.726Z,-0.42
2019-03-20T04:50:03.102Z,-0.41
2019-03-20T04:51:38.818Z,-0.32
2019-03-20T04:53:14.030Z,-0.45
2019-03-20T04:54:49.137Z,-0.56
2019-03-20T04:56:24.579Z,-0.47
2019-03-20T04:57:59.804Z,-0.45
2019-03-20T04:59:34.959Z,-0.40
2019-03-20T05:01:10.156Z,-0.34
2019-03-20T05:02:45.919Z,-0.30
2019-03-20T05:04:21.322Z,-0.32
2019-03-20T05:05:56.480Z,-0.34
2019-03-20T05:07:31.610Z,-0.47
2019-03-20T05:09:07.930Z,-0.55
2019-03-20T05:10:43.003Z,-0.55
2019-03-20T05:12:18.544Z,-0.49
2019-03-20T05:13:53.595Z,-0.49
2019-03-20T05:15:28.752Z,-0.63
2019-03-20T05:17:04.815Z,-0.59
2019-03-20T05:18:40.016Z,-0.56
2019-03-20T05:20:16.206Z,-0.60
2019-03-20T05:21:51.305Z,-0.47
2019-03-20T05:23:27.309Z,-0.50
2019-03-20T05:25:02.511Z,-0.40
2019-03-20T05:26:37.884Z,-0.42
2019-03-20T05:28:15.350Z,-0.52
2019-03-20T05:29:50.604Z,-0.47
2019-03-20T05:31:25.825Z,-0.45
2019-03-20T05:33:00.929Z,-0.45
2019-03-20T05:34:36.130Z,-0.47
2019-03-20T05:36:11.296Z,-0.36
2019-03-20T05:37:46.848Z,-0.29
2019-03-20T05:39:21.973Z,-0.24
2019-03-20T05:40:57.579Z,-0.21
2019-03-20T05:42:32.731Z,-0.21
2019-03-20T05:44:08.782Z,-0.22
2019-03-20T05:45:44.381Z,-0.28
2019-03-20T05:47:20.922Z,-0.28
2019-03-20T05:48:56.288Z,-0.21
2019-03-20T05:50:31.454Z,-0.16
2019-03-20T05:52:08.411Z,-0.15
2019-03-20T05:53:44.110Z,-0.09
2019-03-20T05:55:22.082Z,-0.12
2019-03-20T05:56:57.276Z,-0.20
2019-03-20T05:58:32.913Z,-0.26
2019-03-20T06:00:21.572Z,-0.19
2019-03-20T06:01:56.754Z,-0.19
2019-03-20T06:03:36.109Z,-0.14
2019-03-20T06:05:12.525Z,-0.09
2019-03-20T06:06:56.940Z,-0.20
2019-03-20T06:08:44.896Z,-0.21
2019-03-20T06:10:19.121Z,-0.32
2019-03-20T06:12:02.708Z,-0.26
2019-03-20T06:13:38.577Z,-0.23
2019-03-20T06:15:16.982Z,-0.14
2019-03-20T06:16:53.454Z,-0.05
2019-03-20T06:18:28.942Z,0.06
2019-03-20T06:20:04.606Z,0.11
2019-03-20T06:21:58.101Z,0.10
2019-03-20T06:23:37.721Z,0.11
2019-03-20T06:25:13.058Z,0.18
2019-03-20T06:26:50.674Z,0.08
2019-03-20T06:28:30.057Z,0.22
2019-03-20T06:30:09.630Z,0.24
2019-03-20T06:31:45.360Z,0.28
2019-03-20T06:33:20.941Z,0.34
2019-03-20T06:34:57.406Z,0.45
2019-03-20T06:36:37.371Z,0.41
2019-03-20T06:38:12.999Z,0.45
2019-03-20T06:39:53.299Z,0.55
2019-03-20T06:41:28.101Z,0.64
2019-03-20T06:43:07.349Z,0.70
2019-03-20T06:44:43.206Z,0.73
2019-03-20T06:46:19.200Z,0.74
2019-03-20T06:47:55.287Z,0.86
2019-03-20T06:49:31.082Z,0.98
2019-03-20T06:51:08.757Z,1.08
2019-03-20T06:52:45.878Z,1.19
2019-03-20T06:54:23.377Z,1.32
2019-03-20T06:55:59.210Z,1.53
2019-03-20T06:57:38.357Z,1.74
2019-03-20T06:59:50.675Z,1.94
2019-03-20T07:01:32.202Z,2.13
2019-03-20T07:03:10.160Z,2.38
2019-03-20T07:05:37.274Z,2.55
2019-03-20T07:07:43.588Z,2.67
2019-03-20T07:09:56.327Z,2.78
2019-03-20T07:11:33.553Z,2.77
2019-03-20T07:13:06.876Z,2.76
2019-03-20T07:14:44.312Z,2.77
2019-03-20T07:16:26.663Z,2.80
2019-03-20T07:18:06.715Z,2.78
2019-03-20T07:19:46.109Z,2.81
2019-03-20T07:21:25.736Z,2.82
2019-03-20T07:23:20.811Z,2.80
2019-03-20T07:24:57.138Z,2.78
2019-03-20T07:26:34.847Z,2.78
2019-03-20T07:28:09.754Z,2.78
2019-03-20T07:29:47.047Z,2.80
2019-03-20T07:31:26.378Z,2.86
2019-03-20T07:33:06.324Z,2.88
2019-03-20T07:34:41.605Z,2.92
2019-03-20T07:36:20.310Z,2.95
2019-03-20T07:37:58.244Z,2.96
2019-03-20T07:39:54.474Z,3.02
2019-03-20T07:41:41.416Z,3.11
2019-03-20T07:43:16.739Z,3.18
2019-03-20T07:44:55.333Z,3.25
2019-03-20T07:46:30.418Z,3.32
2019-03-20T07:48:22.144Z,3.48
2019-03-20T07:49:51.828Z,3.64
2019-03-20T07:51:33.686Z,3.96
2019-03-20T07:56:38.612Z,4.73
2019-03-20T07:58:18.811Z,5.35
2019-03-20T08:00:00.001Z,5.90
2019-03-20T08:01:35.397Z,6.12
2019-03-20T08:03:13.616Z,6.04
2019-03-20T08:04:53.043Z,6.29
2019-03-20T08:06:28.218Z,6.49
2019-03-20T08:08:07.990Z,6.75
2019-03-20T08:09:43.692Z,6.87
2019-03-20T08:11:19.522Z,7.01
2019-03-20T08:12:55.419Z,7.09
2019-03-20T08:14:34.791Z,7.21
2019-03-20T08:16:15.486Z,7.33
2019-03-20T08:17:50.578Z,7.51
2019-03-20T08:19:27.961Z,7.21
2019-03-20T08:21:03.107Z,7.38
2019-03-20T08:22:38.424Z,7.84
2019-03-20T08:24:13.778Z,7.82
2019-03-20T08:25:49.595Z,8.19
2019-03-20T08:27:26.698Z,8.09
2019-03-20T08:29:02.249Z,7.97
2019-03-20T08:30:48.009Z,7.97
2019-03-20T08:32:28.535Z,8.03
2019-03-20T08:34:06.225Z,8.41
2019-03-20T08:35:46.243Z,8.34
2019-03-20T08:37:22.134Z,8.33
2019-03-20T08:38:59.596Z,8.29
2019-03-20T08:40:35.244Z,8.23
2019-03-20T08:42:13.919Z,8.61
2019-03-20T08:43:50.411Z,8.41
2019-03-20T08:45:26.676Z,8.42
2019-03-20T08:47:03.093Z,8.98
2019-03-20T08:48:44.419Z,9.18
2019-03-20T08:50:41.162Z,9.33
2019-03-20T08:52:16.034Z,9.60
2019-03-20T08:53:51.779Z,9.65
2019-03-20T08:55:27.049Z,9.80
2019-03-20T08:57:04.763Z,9.36
2019-03-20T08:58:40.837Z,9.92
2019-03-20T09:00:24.860Z,9.98
2019-03-20T09:02:01.502Z,10.12
2019-03-20T09:03:36.897Z,10.71
2019-03-20T09:05:12.550Z,10.42
2019-03-20T09:06:48.468Z,10.53
2019-03-20T09:08:29.272Z,10.31
2019-03-20T09:10:02.975Z,10.03
2019-03-20T09:11:40.002Z,10.25
2019-03-20T09:13:18.937Z,10.05
2019-03-20T09:14:55.252Z,10.01
2019-03-20T09:16:32.008Z,10.11
2019-03-20T09:18:07.726Z,10.39
2019-03-20T09:19:43.282Z,10.15
2019-03-20T09:21:19.673Z,10.24
2019-03-20T09:22:54.993Z,10.98
2019-03-20T09:24:31.223Z,11.39
2019-03-20T09:26:09.323Z,11.60
2019-03-20T09:27:48.057Z,11.33
2019-03-20T09:29:24.340Z,11.70
2019-03-20T09:30:59.717Z,12.28
2019-03-20T09:32:37.491Z,11.87
2019-03-20T09:34:15.913Z,11.54
2019-03-20T09:35:51.714Z,11.60
2019-03-20T09:37:35.776Z,11.72
2019-03-20T09:39:14.129Z,11.54
2019-03-20T09:40:53.074Z,11.38
2019-03-20T09:42:28.656Z,11.33
2019-03-20T09:44:05.907Z,11.15
2019-03-20T09:45:41.479Z,11.05
2019-03-20T09:47:21.557Z,11.34
2019-03-20T09:48:57.264Z,11.57
2019-03-20T09:50:35.786Z,11.62
2019-03-20T09:52:14.132Z,11.78
2019-03-20T09:53:53.713Z,11.98
2019-03-20T09:55:30.727Z,12.11
2019-03-20T09:57:06.222Z,11.82
2019-03-20T09:58:44.938Z,11.47
2019-03-20T10:00:21.934Z,11.98
2019-03-20T10:01:57.230Z,11.76
2019-03-20T10:03:37.408Z,11.68
2019-03-20T10:05:12.724Z,11.47
2019-03-20T10:06:51.714Z,11.51
2019-03-20T10:08:32.213Z,11.59
2019-03-20T10:10:18.676Z,11.29
2019-03-20T10:11:57.556Z,11.29
2019-03-20T10:13:34.360Z,11.43
2019-03-20T10:15:15.348Z,11.20
2019-03-20T10:16:57.080Z,11.28
2019-03-20T10:18:33.258Z,11.22
2019-03-20T10:20:12.775Z,11.07
2019-03-20T10:21:55.293Z,10.21
2019-03-20T10:23:32.916Z,10.14
2019-03-20T10:25:12.587Z,9.83
2019-03-20T10:26:53.784Z,9.88
2019-03-20T10:28:32.803Z,9.86
2019-03-20T10:30:14.256Z,10.11
2019-03-20T10:31:52.660Z,10.35
2019-03-20T10:33:29.229Z,10.81
2019-03-20T10:35:08.798Z,10.73
2019-03-20T10:36:44.835Z,10.77
2019-03-20T10:38:20.280Z,10.48
2019-03-20T10:39:56.963Z,10.42
2019-03-20T10:41:32.745Z,10.36
2019-03-20T10:43:13.764Z,10.60
2019-03-20T10:44:49.697Z,10.73
2019-03-20T10:46:29.099Z,10.95
2019-03-20T10:48:09.327Z,11.26
2019-03-20T10:49:46.258Z,10.85
2019-03-20T10:51:22.164Z,11.09
2019-03-20T10:52:58.490Z,10.87
2019-03-20T10:54:36.996Z,10.42
2019-03-20T10:56:18.649Z,10.21
2019-03-20T10:57:54.987Z,10.04
2019-03-20T10:59:30.357Z,10.45
2019-03-20T11:01:05.826Z,10.61
2019-03-20T11:02:41.795Z,10.46
2019-03-20T11:04:17.822Z,10.08
2019-03-20T11:05:55.433Z,10.15
2019-03-20T11:07:40.667Z,10.38
2019-03-20T11:09:27.573Z,10.00
2019-03-20T11:11:05.768Z,9.83
2019-03-20T11:12:45.792Z,9.76
2019-03-20T11:14:22.951Z,10.13
2019-03-20T11:16:18.282Z,10.42
2019-03-20T11:17:54.265Z,10.61
2019-03-20T11:19:43.861Z,10.71
2019-03-20T11:21:26.337Z,10.86
2019-03-20T11:23:05.000Z,10.75
2019-03-20T11:24:47.133Z,10.45
2019-03-20T11:26:27.101Z,10.21
2019-03-20T11:28:02.896Z,10.27
2019-03-20T11:29:53.740Z,10.00
2019-03-20T11:31:29.612Z,10.00
2019-03-20T11:33:09.178Z,9.86
2019-03-20T11:34:54.160Z,10.06
2019-03-20T11:36:36.533Z,10.14
2019-03-20T11:38:13.457Z,10.37
2019-03-20T11:39:48.622Z,10.50
2019-03-20T11:41:23.673Z,10.69
2019-03-20T11:43:00.272Z,10.94
2019-03-20T11:44:38.915Z,10.93
2019-03-20T11:46:16.810Z,10.99
2019-03-20T11:47:55.661Z,11.32
2019-03-20T11:49:48.331Z,11.24
2019-03-20T11:51:28.211Z,10.88
2019-03-20T11:53:06.371Z,10.58
2019-03-20T11:54:47.647Z,10.43
2019-03-20T11:56:34.467Z,10.27
2019-03-20T11:58:16.787Z,10.47
2019-03-20T11:59:52.239Z,10.72
2019-03-20T12:01:29.306Z,11.07
2019-03-20T12:03:06.635Z,11.15
2019-03-20T12:04:47.205Z,11.32
2019-03-20T12:06:22.682Z,11.36
2019-03-20T12:08:25.469Z,11.52
2019-03-20T12:10:06.905Z,11.71
2019-03-20T12:11:55.162Z,11.39
2019-03-20T12:13:38.153Z,11.40
2019-03-20T12:15:24.751Z,11.55
2019-03-20T12:17:14.187Z,11.40
2019-03-20T12:18:53.116Z,10.74
2019-03-20T12:20:37.974Z,10.23
2019-03-20T12:22:20.901Z,10.57
2019-03-20T12:24:04.890Z,10.67
2019-03-20T12:25:46.635Z,11.05
2019-03-20T12:27:36.496Z,11.31
2019-03-20T12:29:16.548Z,11.52
2019-03-20T12:30:57.475Z,11.45
2019-03-20T12:32:34.321Z,11.24
2019-03-20T12:34:13.669Z,10.90
2019-03-20T12:35:53.832Z,11.03
2019-03-20T12:37:36.410Z,11.00
2019-03-20T12:39:24.188Z,10.99
2019-03-20T12:41:11.206Z,10.95
2019-03-20T12:42:50.727Z,11.37
2019-03-20T12:44:32.228Z,11.14
2019-03-20T12:46:13.048Z,11.25
2019-03-20T12:47:52.046Z,11.23
2019-03-20T12:49:31.247Z,11.41
2019-03-20T12:51:09.686Z,11.76
2019-03-20T12:52:45.646Z,11.20
2019-03-20T12:54:24.180Z,11.15
2019-03-20T12:56:00.279Z,11.64
2019-03-20T12:57:37.507Z,11.49
2019-03-20T12:59:15.827Z,11.89
2019-03-20T13:00:54.590Z,12.39
2019-03-20T13:02:30.135Z,12.46
2019-03-20T13:04:07.833Z,12.36
2019-03-20T13:05:46.310Z,12.65
2019-03-20T13:07:33.777Z,12.09
2019-03-20T13:09:11.165Z,12.15
2019-03-20T13:10:55.549Z,12.11
2019-03-20T13:12:31.675Z,11.64
2019-03-20T13:14:08.237Z,11.69
2019-03-20T13:15:47.010Z,11.90
2019-03-20T13:17:22.794Z,12.03
2019-03-20T13:18:59.888Z,11.51
2019-03-20T13:20:39.415Z,11.23
2019-03-20T13:22:27.044Z,11.31
2019-03-20T13:24:03.013Z,11.23
2019-03-20T13:25:38.902Z,11.09
2019-03-20T13:27:14.319Z,11.14
2019-03-20T13:28:51.426Z,11.06
2019-03-20T13:30:34.110Z,11.12
2019-03-20T13:32:15.289Z,11.24
2019-03-20T13:33:56.195Z,11.05
2019-03-20T13:35:37.028Z,10.97
2019-03-20T13:37:12.353Z,10.95
2019-03-20T13:38:49.631Z,10.82
2019-03-20T13:40:29.010Z,10.65
2019-03-20T13:42:05.253Z,10.58
2019-03-20T13:43:40.992Z,10.66
2019-03-20T13:45:24.643Z,10.52
2019-03-20T13:47:04.634Z,10.35
2019-03-20T13:48:40.249Z,10.50
2019-03-20T13:50:18.480Z,10.36
2019-03-20T13:52:12.580Z,10.28
2019-03-20T13:53:47.623Z,10.27
2019-03-20T13:55:26.463Z,10.24
2019-03-20T13:57:01.931Z,10.10
2019-03-20T13:58:40.812Z,9.97
2019-03-20T14:00:21.070Z,10.18
2019-03-20T14:02:01.218Z,10.24
2019-03-20T14:03:39.847Z,10.16
2019-03-20T14:05:22.992Z,10.15
2019-03-20T14:07:04.601Z,10.08
2019-03-20T14:08:42.926Z,10.03
2019-03-20T14:10:24.925Z,10.14
2019-03-20T14:12:00.408Z,9.94
2019-03-20T14:13:39.731Z,10.06
2019-03-20T14:15:24.377Z,10.12
2019-03-20T14:17:05.304Z,10.02
2019-03-20T14:18:51.276Z,9.96
2019-03-20T14:20:40.245Z,10.02
2019-03-20T14:22:24.547Z,10.21
2019-03-20T14:24:24.295Z,10.32
2019-03-20T14:26:06.277Z,10.38
2019-03-20T14:27:52.525Z,10.51
2019-03-20T14:29:33.315Z,10.52
2019-03-20T14:31:12.211Z,10.28
2019-03-20T14:32:47.480Z,10.31
2019-03-20T14:34:26.423Z,10.31
2019-03-20T14:36:02.065Z,10.17
2019-03-20T14:37:38.546Z,10.07
2019-03-20T14:39:14.435Z,10.08
2019-03-20T14:40:50.189Z,10.14
2019-03-20T14:42:30.162Z,10.26
2019-03-20T14:44:15.309Z,10.19
2019-03-20T14:46:01.587Z,10.18
2019-03-20T14:47:47.377Z,10.22
2019-03-20T14:49:24.194Z,10.09
2019-03-20T14:51:01.858Z,10.08
2019-03-20T14:52:37.970Z,10.04
2019-03-20T14:54:13.394Z,9.95
2019-03-20T14:55:59.824Z,9.87
2019-03-20T14:57:35.036Z,10.11
2019-03-20T14:59:10.431Z,10.21
2019-03-20T15:00:49.328Z,10.24
2019-03-20T15:02:30.044Z,10.34
2019-03-20T15:04:07.585Z,10.20
2019-03-20T15:05:47.437Z,10.39
2019-03-20T15:07:34.516Z,10.42
2019-03-20T15:09:14.925Z,10.39
2019-03-20T15:10:58.923Z,10.31
2019-03-20T15:12:35.578Z,10.15
2019-03-20T15:14:19.349Z,10.22
2019-03-20T15:15:58.289Z,10.25
2019-03-20T15:17:36.343Z,10.32
2019-03-20T15:19:16.115Z,10.21
2019-03-20T15:20:58.282Z,10.24
2019-03-20T15:22:36.174Z,10.37
2019-03-20T15:24:15.761Z,10.36
2019-03-20T15:25:55.035Z,10.43
2019-03-20T15:27:43.418Z,10.36
2019-03-20T15:29:23.989Z,10.33
2019-03-20T15:31:09.131Z,10.17
2019-03-20T15:32:45.071Z,10.28
2019-03-20T15:34:39.487Z,10.21
2019-03-20T15:36:24.562Z,10.13
2019-03-20T15:38:06.019Z,10.15
2019-03-20T15:39:54.078Z,10.19
2019-03-20T15:41:32.650Z,10.24
2019-03-20T15:43:12.650Z,10.36
2019-03-20T15:44:48.521Z,10.45
2019-03-20T15:46:27.651Z,10.34
2019-03-20T15:48:10.922Z,10.15
2019-03-20T15:49:49.473Z,10.02
2019-03-20T15:51:26.572Z,9.80
2019-03-20T15:53:03.553Z,9.70
2019-03-20T15:54:42.478Z,9.74
2019-03-20T15:56:18.698Z,9.80
2019-03-20T15:57:55.175Z,9.85
2019-03-20T15:59:34.337Z,9.76
2019-03-20T16:01:14.242Z,9.63
2019-03-20T16:02:52.790Z,9.56
2019-03-20T16:04:34.165Z,9.53
2019-03-20T16:06:17.668Z,9.53
2019-03-20T16:07:58.101Z,9.56
2019-03-20T16:09:33.828Z,9.48
2019-03-20T16:11:16.790Z,9.41
2019-03-20T16:12:52.038Z,9.46
2019-03-20T16:14:27.707Z,9.41
2019-03-20T16:16:03.455Z,9.39
2019-03-20T16:17:38.841Z,9.29
2019-03-20T16:19:14.709Z,9.26
2019-03-20T16:20:50.356Z,9.34
2019-03-20T16:22:25.485Z,9.25
2019-03-20T16:24:01.121Z,9.25
2019-03-20T16:25:36.634Z,9.20
2019-03-20T16:27:12.895Z,9.20
2019-03-20T16:29:01.195Z,9.21
2019-03-20T16:30:39.447Z,9.26
2019-03-20T16:32:19.230Z,9.27
2019-03-20T16:33:58.694Z,9.38
2019-03-20T16:35:40.107Z,9.37
2019-03-20T16:37:19.734Z,9.39
2019-03-20T16:38:59.109Z,9.42
2019-03-20T16:40:54.408Z,9.36
2019-03-20T16:42:34.038Z,9.30
2019-03-20T16:44:14.116Z,9.16
2019-03-20T16:45:50.264Z,9.16
2019-03-20T16:47:29.477Z,9.12
2019-03-20T16:49:05.792Z,9.14
2019-03-20T16:50:45.509Z,9.11
2019-03-20T16:52:25.927Z,9.06
2019-03-20T16:54:01.373Z,9.05
2019-03-20T16:55:45.792Z,9.07
2019-03-20T16:57:31.894Z,9.15
2019-03-20T16:59:16.612Z,9.24
2019-03-20T17:00:55.090Z,9.25
2019-03-20T17:02:30.526Z,9.22
2019-03-20T17:04:13.127Z,9.27
2019-03-20T17:05:49.433Z,9.29
2019-03-20T17:07:31.216Z,9.34
2019-03-20T17:09:11.433Z,9.28
2019-03-20T17:10:48.718Z,9.19
2019-03-20T17:12:24.726Z,9.17
2019-03-20T17:14:01.311Z,9.12
2019-03-20T17:15:40.442Z,9.14
2019-03-20T17:17:21.696Z,9.08
2019-03-20T17:19:03.155Z,9.01
2019-03-20T17:20:41.919Z,8.92
2019-03-20T17:22:19.847Z,8.92
2019-03-20T17:24:02.608Z,8.85
2019-03-20T17:25:42.357Z,8.81
2019-03-20T17:27:18.244Z,8.76
2019-03-20T17:29:14.303Z,8.75
2019-03-20T17:31:21.982Z,8.76
2019-03-20T17:33:05.528Z,8.70
2019-03-20T17:34:43.834Z,8.69
2019-03-20T17:36:20.647Z,8.64
2019-03-20T17:38:01.147Z,8.61
2019-03-20T17:39:46.062Z,8.59
2019-03-20T17:41:21.132Z,8.51
2019-03-20T17:42:59.597Z,8.63
2019-03-20T17:44:35.345Z,8.53
2019-03-20T17:46:12.371Z,8.48
2019-03-20T17:47:51.109Z,8.43
2019-03-20T17:49:46.554Z,8.38
2019-03-20T17:51:28.335Z,8.31
2019-03-20T17:53:08.294Z,8.25
2019-03-20T17:54:45.422Z,8.19
2019-03-20T17:56:24.197Z,8.27
2019-03-20T17:58:11.054Z,8.15
2019-03-20T17:59:50.535Z,8.05
2019-03-20T18:01:42.751Z,7.98
2019-03-20T18:03:20.669Z,7.95
2019-03-20T18:04:56.680Z,7.93
2019-03-20T18:06:44.323Z,7.88
2019-03-20T18:08:30.706Z,7.84
2019-03-20T18:10:10.436Z,7.80
2019-03-20T18:11:52.491Z,7.69
2019-03-20T18:13:31.526Z,7.58
2019-03-20T18:15:08.913Z,7.59
2019-03-20T18:16:47.198Z,7.55
2019-03-20T18:18:27.658Z,7.47
2019-03-20T18:20:05.430Z,7.43
2019-03-20T18:21:40.770Z,7.45
2019-03-20T18:23:20.564Z,7.45
2019-03-20T18:25:02.254Z,7.36
2019-03-20T18:26:38.013Z,7.29
2019-03-20T18:28:16.383Z,7.24
2019-03-20T18:29:57.172Z,7.21
2019-03-20T18:31:45.478Z,7.15
2019-03-20T18:33:17.194Z,7.14
2019-03-20T18:35:13.295Z,7.14
2019-03-20T18:36:50.735Z,7.13
2019-03-20T18:38:33.208Z,7.18
2019-03-20T18:40:14.526Z,7.18
2019-03-20T18:43:48.869Z,7.20
2019-03-20T18:45:34.160Z,7.14
2019-03-20T18:47:09.636Z,7.10
2019-03-20T18:48:54.570Z,7.12
2019-03-20T18:50:41.729Z,7.12
2019-03-20T18:52:17.451Z,7.10
2019-03-20T18:54:01.510Z,7.09
2019-03-20T18:55:37.033Z,7.14
2019-03-20T18:57:30.544Z,7.10
2019-03-20T18:59:06.255Z,7.03
2019-03-20T19:00:44.328Z,6.95
2019-03-20T19:02:32.345Z,6.89
2019-03-20T19:04:11.457Z,6.92
2019-03-20T19:06:01.760Z,6.93
2019-03-20T19:07:54.409Z,6.88
2019-03-20T19:09:40.618Z,6.79
2019-03-20T19:11:37.354Z,6.78
2019-03-20T19:13:15.941Z,6.79
2019-03-20T19:14:52.857Z,6.72
2019-03-20T19:16:32.066Z,6.66
2019-03-20T19:18:16.932Z,6.64
2019-03-20T19:20:19.966Z,6.63
2019-03-20T19:21:58.979Z,6.62
2019-03-20T19:23:38.266Z,6.57
2019-03-20T19:25:16.603Z,6.55
2019-03-20T19:26:55.109Z,6.45
2019-03-20T19:28:30.860Z,6.37
2019-03-20T19:30:09.137Z,6.24
2019-03-20T19:31:56.756Z,6.11
2019-03-20T19:33:33.826Z,6.07
2019-03-20T19:35:13.922Z,5.95
2019-03-20T19:36:49.301Z,5.86
2019-03-20T19:38:34.917Z,5.85
2019-03-20T19:40:11.089Z,5.82
2019-03-20T19:41:47.856Z,5.70
2019-03-20T19:43:25.310Z,5.65
2019-03-20T19:45:00.903Z,5.48
2019-03-20T19:46:39.235Z,5.43
2019-03-20T19:48:23.087Z,5.37
2019-03-20T19:50:02.490Z,5.29
2019-03-20T19:53:32.757Z,5.27
2019-03-20T19:55:10.230Z,5.07
2019-03-20T19:56:45.615Z,5.03
2019-03-20T19:58:22.205Z,4.87
2019-03-20T19:59:57.699Z,4.88
2019-03-20T20:01:46.225Z,4.82
2019-03-20T20:03:26.534Z,4.78
2019-03-20T20:05:15.053Z,4.59
2019-03-20T20:06:42.093Z,4.44
2019-03-20T20:08:36.680Z,4.32
2019-03-20T20:10:14.306Z,4.30
2019-03-20T20:11:52.654Z,4.36
2019-03-20T20:13:36.708Z,4.32
2019-03-20T20:15:17.709Z,4.29
2019-03-20T20:16:55.219Z,4.30
2019-03-20T20:18:36.011Z,4.24
2019-03-20T20:20:31.235Z,4.25
2019-03-20T20:22:09.758Z,4.24
2019-03-20T20:23:49.259Z,4.14
2019-03-20T20:25:27.831Z,4.01
2019-03-20T20:27:03.952Z,4.00
2019-03-20T20:28:42.205Z,3.93
2019-03-20T20:30:25.549Z,4.03
2019-03-20T20:32:04.198Z,3.92
2019-03-20T20:33:41.392Z,3.89
2019-03-20T20:35:20.686Z,3.86
2019-03-20T20:37:03.750Z,3.90
2019-03-20T20:38:45.146Z,3.88
2019-03-20T20:40:27.814Z,3.80
2019-03-20T20:42:05.643Z,3.72
2019-03-20T20:43:43.560Z,3.67
2019-03-20T20:45:19.708Z,3.65
2019-03-20T20:47:03.343Z,3.59
2019-03-20T20:48:43.462Z,3.59
2019-03-20T20:50:22.551Z,3.61
2019-03-20T20:52:19.059Z,3.50
2019-03-20T20:53:47.919Z,3.40
2019-03-20T20:55:25.705Z,3.55
2019-03-20T20:57:04.210Z,3.49
2019-03-20T20:58:39.760Z,3.50
2019-03-20T21:00:21.882Z,3.48
2019-03-20T21:01:58.972Z,3.32
2019-03-20T21:03:34.905Z,3.22
2019-03-20T21:05:22.199Z,3.29
2019-03-20T21:07:15.577Z,3.29
2019-03-20T21:08:52.523Z,3.29
2019-03-20T21:10:30.608Z,3.33
2019-03-20T21:12:06.279Z,3.34
2019-03-20T21:13:43.446Z,3.29
2019-03-20T21:15:41.282Z,3.17
2019-03-20T21:17:22.964Z,3.30
2019-03-20T21:19:36.698Z,3.44
2019-03-20T21:21:15.372Z,3.45
2019-03-20T21:23:27.827Z,3.38
2019-03-20T21:25:03.600Z,3.30
2019-03-20T21:29:16.135Z,3.27
2019-03-20T21:31:32.443Z,3.30
2019-03-20T21:33:11.166Z,3.29
2019-03-20T21:35:25.685Z,3.19
2019-03-20T21:37:48.971Z,3.17
2019-03-20T21:39:24.566Z,3.22
2019-03-20T21:41:50.042Z,3.23
2019-03-20T21:44:06.668Z,3.25
2019-03-20T21:46:14.673Z,3.16
2019-03-20T21:47:50.668Z,3.00